createdAt,value
2017-10-21T10:30:12.018Z,23.48
2017-10-21T10:31:11.642Z,23.47
2017-10-21T10:32:14.320Z,24.40
2017-10-21T10:33:11.834Z,24.05
2017-10-21T10:34:11.617Z,23.93
2017-10-21T10:35:11.596Z,24.08
2017-10-21T10:36:11.772Z,23.78
2017-10-21T10:37:11.558Z,23.87
2017-10-21T10:38:11.526Z,24.39
2017-10-21T10:39:11.702Z,24.03
2017-10-21T10:40:11.499Z,23.68
2017-10-21T10:41:11.462Z,23.68
2017-10-21T10:42:11.627Z,23.61
2017-10-21T10:43:11.448Z,24.55
2017-10-21T10:44:11.406Z,24.24
2017-10-21T10:45:55.965Z,24.06
2017-10-21T10:46:55.857Z,23.88
2017-10-21T10:48:49.943Z,23.77
2017-10-21T10:49:49.936Z,23.73
2017-10-21T10:51:43.054Z,23.77
2017-10-21T10:52:42.971Z,23.74
2017-10-21T10:54:37.111Z,24.86
2017-10-21T10:55:37.012Z,24.43
2017-10-21T10:56:37.074Z,24.05
2017-10-21T10:57:37.025Z,23.91
2017-10-21T10:58:37.403Z,23.81
2017-10-21T10:59:37.038Z,23.77
2017-10-21T11:00:37.092Z,23.76
2017-10-21T11:01:36.951Z,23.74
2017-10-21T11:02:37.266Z,23.68
2017-10-21T11:03:37.089Z,23.74
2017-10-21T11:04:36.942Z,23.84
2017-10-21T11:05:37.494Z,23.71
2017-10-21T11:06:36.815Z,23.55
2017-10-21T11:07:41.962Z,23.69
2017-10-21T11:08:40.700Z,23.58
2017-10-21T11:09:37.563Z,23.51
2017-10-21T11:10:42.362Z,23.65
2017-10-21T11:11:39.076Z,23.58
2017-10-21T11:12:39.362Z,23.66
2017-10-21T11:13:38.518Z,23.63
2017-10-21T11:14:37.311Z,23.48
2017-10-21T11:15:37.763Z,23.54
2017-10-21T11:16:36.764Z,23.54
2017-10-21T11:17:36.699Z,23.77
2017-10-21T11:18:36.753Z,23.74
2017-10-21T11:19:49.377Z,23.63
2017-10-21T11:20:39.192Z,23.73
2017-10-21T11:21:37.455Z,23.87
2017-10-21T11:22:36.677Z,23.80
2017-10-21T11:23:41.427Z,23.68
2017-10-21T11:24:41.672Z,23.74
2017-10-21T11:25:37.318Z,23.87
2017-10-21T11:26:43.844Z,24.02
2017-10-21T11:27:38.987Z,24.13
2017-10-21T11:28:43.392Z,23.86
2017-10-21T11:29:38.497Z,24.11
2017-10-21T11:30:39.227Z,24.23
2017-10-21T11:31:44.169Z,23.99
2017-10-21T11:32:38.629Z,23.88
2017-10-21T11:33:39.031Z,23.91
2017-10-21T11:34:37.083Z,24.05
2017-10-21T11:35:39.572Z,24.06
2017-10-21T11:36:41.200Z,24.20
2017-10-21T11:37:38.189Z,24.28
2017-10-21T11:38:39.295Z,24.14
2017-10-21T11:39:38.718Z,24.02
2017-10-21T11:41:36.123Z,24.16
2017-10-21T11:42:36.202Z,24.29
2017-10-21T11:43:36.097Z,24.29
2017-10-21T11:44:36.061Z,24.16
2017-10-21T11:45:36.071Z,24.17
2017-10-21T11:46:36.058Z,24.17
2017-10-21T11:47:36.049Z,24.11
2017-10-21T11:48:36.001Z,24.17
2017-10-21T11:49:36.002Z,24.26
2017-10-21T11:50:35.938Z,24.20
2017-10-21T11:51:35.939Z,24.26
2017-10-21T11:52:35.897Z,24.14
2017-10-21T11:53:35.897Z,24.28
2017-10-21T11:54:35.922Z,24.30
2017-10-21T11:55:35.890Z,24.35
2017-10-21T11:56:35.869Z,24.32
2017-10-21T11:57:35.810Z,24.20
2017-10-21T11:58:35.803Z,24.30
